createdAt,value
2023-01-29T00:02:54.399Z,101
2023-01-29T00:05:27.315Z,79
2023-01-29T00:09:13.246Z,69
2023-01-29T00:14:26.091Z,61
2023-01-29T00:18:16.668Z,83
2023-01-29T00:23:29.612Z,72
2023-01-29T00:25:57.858Z,57
2023-01-29T00:28:26.116Z,67
2023-01-29T00:34:37.111Z,85
2023-01-29T00:37:05.079Z,73
2023-01-29T00:39:46.123Z,72
2023-01-29T00:42:01.592Z,63
2023-01-29T00:44:29.894Z,68
2023-01-29T00:46:50.057Z,72
2023-01-29T00:49:18.231Z,72
2023-01-29T00:53:00.561Z,71
2023-01-29T00:55:28.896Z,70
2023-01-29T00:57:57.109Z,58
2023-01-29T01:00:25.409Z,54
2023-01-29T01:04:07.820Z,65
2023-01-29T01:06:36.105Z,61
2023-01-29T01:09:04.334Z,61
2023-01-29T01:14:00.936Z,75
2023-01-29T01:16:29.153Z,66
2023-01-29T01:18:57.389Z,69
2023-01-29T01:21:25.672Z,98
2023-01-29T01:23:53.911Z,65
2023-01-29T01:26:22.175Z,86
2023-01-29T01:30:04.570Z,81
2023-01-29T01:32:32.847Z,84
2023-01-29T01:35:01.132Z,68
2023-01-29T01:37:29.385Z,73
2023-01-29T02:33:21.767Z,71
2023-01-29T02:37:04.185Z,75
2023-01-29T02:39:32.430Z,88
2023-01-29T02:42:00.668Z,83
2023-01-29T02:44:28.995Z,73
2023-01-29T02:46:57.219Z,90
2023-01-29T02:49:25.574Z,99
2023-01-29T02:53:07.924Z,92
2023-01-29T02:58:12.695Z,131
2023-01-29T03:51:20.341Z,114
2023-01-29T04:26:20.703Z,72
2023-01-29T04:30:03.039Z,92
2023-01-29T04:32:31.324Z,73
2023-01-29T04:36:13.703Z,73
2023-01-29T04:41:10.253Z,78
2023-01-29T04:43:38.587Z,82
2023-01-29T05:08:13.139Z,80
2023-01-29T05:13:25.892Z,99
2023-01-29T05:17:16.575Z,120
2023-01-29T05:21:15.291Z,92
2023-01-29T05:26:20.013Z,112
2023-01-29T05:31:33.038Z,98
2023-01-29T05:34:01.163Z,73
2023-01-29T05:36:29.433Z,90
2023-01-29T05:38:57.813Z,77
2023-01-29T05:41:34.183Z,85
2023-01-29T05:44:02.425Z,96
2023-01-29T05:46:22.532Z,76
2023-01-29T05:50:04.905Z,75
2023-01-29T05:52:33.265Z,95
2023-01-29T05:56:15.593Z,77
2023-01-29T05:59:58.035Z,75
2023-01-29T06:04:54.556Z,87
2023-01-29T06:07:22.771Z,91
2023-01-29T06:11:05.168Z,106
2023-01-29T06:13:33.499Z,88
2023-01-29T06:16:01.759Z,93
2023-01-29T06:18:29.999Z,82
2023-01-29T06:20:58.253Z,77
2023-01-29T06:23:26.499Z,73
2023-01-29T06:25:54.761Z,101
2023-01-29T06:28:23.040Z,109
2023-01-29T06:32:05.523Z,82
2023-01-29T06:34:33.726Z,80
2023-01-29T06:37:01.990Z,98
2023-01-29T06:39:30.234Z,90
2023-01-29T06:41:58.519Z,90
2023-01-29T06:44:26.751Z,112
2023-01-29T06:49:15.120Z,77
2023-01-29T06:52:57.498Z,91
2023-01-29T06:55:25.760Z,88
2023-01-29T06:57:54.033Z,66
2023-01-29T07:00:22.290Z,101
2023-01-29T07:05:18.880Z,69
2023-01-29T07:09:01.231Z,81
2023-01-29T07:11:29.513Z,78
2023-01-29T07:13:57.777Z,81
2023-01-29T07:16:26.041Z,83
2023-01-29T07:20:08.463Z,143
2023-01-29T07:22:36.723Z,81
2023-01-29T07:25:04.962Z,74
2023-01-29T07:27:33.229Z,105
2023-01-29T07:30:01.541Z,70
2023-01-29T07:32:29.784Z,66
2023-01-29T07:34:58.052Z,72
2023-01-29T07:37:26.323Z,104
2023-01-29T07:39:54.544Z,90
2023-01-29T18:05:37.379Z,94
2023-01-29T18:07:52.656Z,93
2023-01-29T18:10:52.680Z,100
2023-01-29T18:13:52.612Z,98
2023-01-29T18:15:56.588Z,86
2023-01-29T18:18:52.579Z,77
2023-01-29T18:20:52.606Z,103
2023-01-29T18:24:52.556Z,97
2023-01-29T18:26:52.647Z,92
2023-01-29T18:29:52.605Z,78
2023-01-29T18:32:52.623Z,91
2023-01-29T18:35:52.611Z,73
2023-01-29T18:37:52.611Z,85
2023-01-29T18:40:52.652Z,89
2023-01-29T18:43:52.789Z,120
2023-01-29T18:46:52.585Z,114
2023-01-29T18:48:52.611Z,108
2023-01-29T18:51:52.634Z,88
2023-01-29T18:54:52.601Z,92
2023-01-29T18:58:52.904Z,95
2023-01-29T19:00:52.704Z,106
2023-01-29T19:03:52.678Z,104
2023-01-29T19:06:52.657Z,100
2023-01-29T19:09:52.598Z,91
2023-01-29T19:11:52.824Z,119
2023-01-29T19:14:52.591Z,94
2023-01-29T19:16:52.680Z,97
2023-01-29T19:19:52.618Z,132
2023-01-29T19:21:52.622Z,95
2023-01-29T19:24:52.606Z,105
2023-01-29T19:27:52.580Z,107
2023-01-29T19:29:52.621Z,108
2023-01-29T19:32:52.715Z,114
2023-01-29T19:35:52.651Z,99
2023-01-29T19:38:52.595Z,146
2023-01-29T19:41:52.569Z,108
2023-01-29T19:43:52.583Z,135
2023-01-29T19:45:52.585Z,90
2023-01-29T19:48:52.573Z,98
2023-01-29T19:50:52.583Z,116
2023-01-29T19:52:52.615Z,112
2023-01-29T19:54:52.570Z,109
2023-01-29T19:57:52.582Z,112
2023-01-29T20:00:52.621Z,130
2023-01-29T20:03:52.666Z,119
2023-01-29T20:06:52.579Z,122
2023-01-29T20:08:52.673Z,118
2023-01-29T20:11:52.595Z,126
2023-01-29T20:14:52.599Z,140
2023-01-29T20:16:52.589Z,159
2023-01-29T20:19:52.586Z,112
2023-01-29T20:21:52.574Z,147
2023-01-29T20:23:52.606Z,135
2023-01-29T20:25:52.652Z,113
2023-01-29T20:28:52.632Z,122
2023-01-29T20:31:52.662Z,100
2023-01-29T20:35:52.633Z,115
2023-01-29T20:38:52.621Z,129
2023-01-29T20:40:52.601Z,125
2023-01-29T20:43:52.613Z,157
2023-01-29T20:45:52.661Z,124
2023-01-29T20:48:52.586Z,129
2023-01-29T20:50:52.613Z,122
2023-01-29T20:53:52.599Z,138
2023-01-29T20:56:52.601Z,129
2023-01-29T20:58:52.601Z,133
2023-01-29T21:01:52.668Z,138
2023-01-29T21:04:52.583Z,161
2023-01-29T21:06:52.629Z,173
2023-01-29T21:08:52.583Z,143
2023-01-29T21:11:52.625Z,153
2023-01-29T21:14:52.604Z,142
2023-01-29T21:16:52.739Z,153
2023-01-29T21:18:52.626Z,151
2023-01-29T21:20:52.692Z,139
2023-01-29T21:23:52.622Z,170
2023-01-29T21:26:52.587Z,160
2023-01-29T21:28:52.577Z,166
2023-01-29T21:30:52.637Z,164
2023-01-29T21:33:52.574Z,160
2023-01-29T21:35:52.613Z,163
2023-01-29T21:38:52.629Z,186
2023-01-29T21:41:52.747Z,175
2023-01-29T21:44:52.609Z,162
2023-01-29T21:46:52.618Z,173
2023-01-29T21:48:52.625Z,187
2023-01-29T21:51:59.197Z,160
2023-01-29T21:54:52.556Z,176
2023-01-29T21:56:52.596Z,111
2023-01-29T21:59:59.186Z,170
2023-01-29T22:02:52.670Z,175
2023-01-29T22:04:52.596Z,166
2023-01-29T22:07:52.608Z,172
2023-01-29T22:09:52.595Z,151
2023-01-29T22:12:52.615Z,177
2023-01-29T22:15:52.581Z,150
2023-01-29T22:17:52.745Z,176
2023-01-29T22:20:52.601Z,176
2023-01-29T22:23:52.760Z,168
2023-01-29T22:26:52.582Z,168
2023-01-29T22:28:52.626Z,157
2023-01-29T22:30:52.695Z,173
2023-01-29T22:32:52.708Z,149
2023-01-29T22:35:52.598Z,177
2023-01-29T22:37:52.653Z,151
2023-01-29T22:40:52.634Z,176
2023-01-29T22:43:52.574Z,167
2023-01-29T22:45:52.599Z,145
2023-01-29T22:47:59.173Z,143
2023-01-29T22:51:52.602Z,165
2023-01-29T22:54:52.620Z,157
2023-01-29T22:57:52.583Z,138
2023-01-29T22:59:52.616Z,161
2023-01-29T23:01:52.666Z,169
2023-01-29T23:04:52.622Z,151
2023-01-29T23:07:52.568Z,155
2023-01-29T23:09:52.628Z,170
2023-01-29T23:12:52.627Z,149
2023-01-29T23:15:52.628Z,173
2023-01-29T23:17:52.586Z,166
2023-01-29T23:20:52.619Z,155
2023-01-29T23:23:52.628Z,146
2023-01-29T23:27:52.629Z,145
2023-01-29T23:29:52.662Z,142
2023-01-29T23:32:52.577Z,149
2023-01-29T23:35:52.588Z,140
2023-01-29T23:37:52.597Z,150
2023-01-29T23:41:59.149Z,149
2023-01-29T23:44:52.601Z,142
2023-01-29T23:46:52.620Z,168
2023-01-29T23:48:52.663Z,151
2023-01-29T23:51:52.596Z,116
2023-01-29T23:53:52.598Z,139
2023-01-29T23:55:59.208Z,118
2023-01-29T23:58:52.577Z,123
